Impacts METAR Board
IDs:

KBWI - Baltimore-Washington, MD, US

Updated at: 2100 UTC 01 Feb 2023
Potential Impact None Slight Moderate High
Time 01/09Z 01/10Z 01/11Z 01/12Z 01/13Z 01/14Z 01/15Z 01/16Z 01/17Z 01/18Z 01/19Z 01/20Z 01/21Z
Temp33 32 33 33 34 33 35 37 38 39 39 39 39
Dewpt30 29 28 27 17 16 15 16 12 10 9 12 12
Altim30.21 30.21 30.21 30.23 30.27 30.28 30.31 30.33 30.31 30.29 30.28 30.27 30.27
VIS1.5 7 10 10 10 10 10 10 10 10 10 10 10
CIG23 70 95 85 95 130 200 200 -- 250 200 200 250
CoverOVCOVCOVCBKNBKNBKNBKNBKNSCTBKNBKNBKNBKN
FltCatIFRVFRVFRVFRVFRVFRVFRVFRVFRVFRVFRVFRVFR
WX-SN BR------------------------
WDir3200030033036036003002903100290
WSpd3 0 0 4 6 8 7 6 9 5 7 5 6
WGst-- -- -- -- -- 18 -- -- -- -- -- -- --
Raw hourly METARs
KBWI 010854Z 32003KT 1 1/2SM -SN BR OVC023 01/M01 A3021 RMK AO2 SLP231 P0000 60000 T00061011 53006
KBWI 010954Z 00000KT 7SM OVC070 00/M02 A3021 RMK AO2 SNE47 SLP232 P0001 T00001017
KBWI 011054Z 00000KT 10SM FEW065 OVC095 01/M02 A3021 RMK AO2 SNB14E34 SLP231 P0000 T00061022
KBWI 011154Z 30004KT 10SM BKN085 01/M03 A3023 RMK AO2 SLP239 60001 70011 T00061028 10022 20000 53008
KBWI 011254Z 33006KT 10SM BKN095 BKN200 01/M08 A3027 RMK AO2 SLP250 T00111083
KBWI 011354Z 36008G18KT 10SM SCT095 BKN130 BKN200 01/M09 A3028 RMK AO2 SLP255 T00061089
KBWI 011454Z 36007KT 10SM SCT110 SCT140 BKN200 02/M09 A3031 RMK AO2 SLP266 T00171094 51027
KBWI 011554Z VRB06KT 10SM FEW110 FEW140 BKN200 03/M09 A3033 RMK AO2 SLP272 T00281089
KBWI 011654Z 30009KT 10SM FEW110 SCT200 03/M11 A3031 RMK AO2 SLP264 T00331111
KBWI 011754Z 29005KT 10SM SCT200 BKN250 04/M12 A3029 RMK AO2 SLP259 T00391122 10044 20006 58006
KBWI 011854Z 31007KT 10SM BKN200 BKN250 04/M13 A3028 RMK AO2 SLP255 T00391128
KBWI 011954Z VRB05KT 10SM BKN200 BKN250 04/M11 A3027 RMK AO2 SLP250 T00391111
KBWI 012054Z 29006KT 10SM SCT200 BKN250 04/M11 A3027 RMK AO2 SLP253 T00391111 55007



Page loaded:  21:56 UTC  |   01:56 PM Pacific  |   02:56 PM Mountain  |   03:56 PM Central  |   04:56 PM Eastern

 

ADVISORIES

FORECASTS

FORECASTS

OBSERVATIONS

USER TOOLS

ABOUT US